Thomson Dream — 9HA2381 — position and weather

sailwx.info

Track history (hours):
 
Tides and Currents Weather Stations Pressure Air Temp Water Temp Dewpoint Dewpoint Depression Visibility Wind Speed Wind Dir Waves Ship Positions

Thomson Dream

Last reported at 2017-Jul-20 20:48 UTC. Time now 2017-Jul-22 16:56 UTC.
Position N 38°26' E 020°08'.

Length 243 m; draft 7.6 m.

Type: Ship. MMSI: 248480975.

Date/timePositionNaut miles runAvg speedWind from/ knotsBaromVisibWave heightAir tempDewpointWater temp
2017-Jul-20 20:48N 38°26' E 020°08'511.6
2017-Jul-20 20:23N 38°21' E 020°06'511.3
2017-Jul-20 19:56N 38°16' E 020°06'232 8.0
2017-Jul-19 15:05N 37°14' E 024°48'119.7
2017-Jul-19 15:00N 37°15' E 024°50'1019.1
2017-Jul-19 14:30N 37°20' E 024°60'612.8
2017-Jul-19 14:00N 37°26' E 024°58'1 0.8
2017-Jul-19 12:08N 37°26' E 024°57'0 0.0
2017-Jul-19 08:32N 37°26' E 024°57'0 0.0
2017-Jul-19 08:26N 37°26' E 024°57'0 0.0
2017-Jul-19 07:56N 37°26' E 024°57'0 0.0
2017-Jul-19 07:26N 37°26' E 024°57'0 0.0
2017-Jul-19 06:56N 37°26' E 024°57'0 0.0
2017-Jul-19 04:44N 37°26' E 024°57'0 0.0
2017-Jul-19 04:26N 37°26' E 024°57'0 0.2
2017-Jul-19 03:49N 37°26' E 024°57'1 3.1
2017-Jul-19 03:31N 37°26' E 024°58'1 1.3
2017-Jul-19 03:01N 37°26' E 024°57'510.0
2017-Jul-19 02:29N 37°24' E 025°03'817.2
2017-Jul-19 02:01N 37°20' E 025°12'918.2
2017-Jul-19 01:31N 37°18' E 025°23'918.0
2017-Jul-19 00:59N 37°16' E 025°35'917.7
2017-Jul-19 00:31N 37°14' E 025°45'  
2017-Jul-16 02:49N 35°32' E 024°15'  
2017-Jul-13 22:06N 40°42' E 018°51'217.8
2017-Jul-13 22:01N 40°43' E 018°53'  
2017-Jul-11 01:35N 43°52' E 014°40'118.2
2017-Jul-11 01:30N 43°52' E 014°38'918.3
2017-Jul-11 01:00N 43°57' E 014°26'918.8
2017-Jul-11 00:30N 44°01' E 014°15'1019.4
2017-Jul-11 00:00N 44°06' E 014°04'1018.8
2017-Jul-10 23:30N 44°13' E 013°55'918.7
2017-Jul-10 23:00N 44°21' E 013°48'1018.2
2017-Jul-10 22:27N 44°30' E 013°41'818.7
2017-Jul-10 22:00N 44°37' E 013°34'918.7
2017-Jul-10 21:30N 44°44' E 013°26'918.5
2017-Jul-10 21:00N 44°52' E 013°19'  
Track history (hours):
 
Tides and Currents Weather Stations Pressure Air Temp Water Temp Dewpoint Dewpoint Depression Visibility Wind Speed Wind Dir Waves Ship Positions

Thomson Dream

Last reported at 2017-Jul-20 20:48 UTC. Time now 2017-Jul-22 16:56 UTC.
Position N 38°26' E 020°08'.

Length 243 m; draft 7.6 m.

Type: Ship. MMSI: 248480975.

Date/timePositionNaut miles runAvg speedWind from/ knotsBaromVisibWave heightAir tempDewpointWater temp
2017-Jul-20 20:48N 38°26' E 020°08'511.6
2017-Jul-20 20:23N 38°21' E 020°06'511.3
2017-Jul-20 19:56N 38°16' E 020°06'232 8.0
2017-Jul-19 15:05N 37°14' E 024°48'119.7
2017-Jul-19 15:00N 37°15' E 024°50'1019.1
2017-Jul-19 14:30N 37°20' E 024°60'612.8
2017-Jul-19 14:00N 37°26' E 024°58'1 0.8
2017-Jul-19 12:08N 37°26' E 024°57'0 0.0
2017-Jul-19 08:32N 37°26' E 024°57'0 0.0
2017-Jul-19 08:26N 37°26' E 024°57'0 0.0
2017-Jul-19 07:56N 37°26' E 024°57'0 0.0
2017-Jul-19 07:26N 37°26' E 024°57'0 0.0
2017-Jul-19 06:56N 37°26' E 024°57'0 0.0
2017-Jul-19 04:44N 37°26' E 024°57'0 0.0
2017-Jul-19 04:26N 37°26' E 024°57'0 0.2
2017-Jul-19 03:49N 37°26' E 024°57'1 3.1
2017-Jul-19 03:31N 37°26' E 024°58'1 1.3
2017-Jul-19 03:01N 37°26' E 024°57'510.0
2017-Jul-19 02:29N 37°24' E 025°03'817.2
2017-Jul-19 02:01N 37°20' E 025°12'918.2
2017-Jul-19 01:31N 37°18' E 025°23'918.0
2017-Jul-19 00:59N 37°16' E 025°35'917.7
2017-Jul-19 00:31N 37°14' E 025°45'  
2017-Jul-16 02:49N 35°32' E 024°15'  
2017-Jul-13 22:06N 40°42' E 018°51'217.8
2017-Jul-13 22:01N 40°43' E 018°53'  
2017-Jul-11 01:35N 43°52' E 014°40'118.2
2017-Jul-11 01:30N 43°52' E 014°38'918.3
2017-Jul-11 01:00N 43°57' E 014°26'918.8
2017-Jul-11 00:30N 44°01' E 014°15'1019.4
2017-Jul-11 00:00N 44°06' E 014°04'1018.8
2017-Jul-10 23:30N 44°13' E 013°55'918.7
2017-Jul-10 23:00N 44°21' E 013°48'1018.2
2017-Jul-10 22:27N 44°30' E 013°41'818.7
2017-Jul-10 22:00N 44°37' E 013°34'918.7
2017-Jul-10 21:30N 44°44' E 013°26'918.5
2017-Jul-10 21:00N 44°52' E 013°19'  

Dump ship's entire track history